Picacho, New Mexico
Current Conditions -  °F | °C
As of 7:51 AM on Thursday 23 Oct 2014 (Local Time) from KROW Reporting Station
Haze Haze  
Wind Chill: 13°   Ceiling: 100
Heat Index: 13°   Visibility: 0.06mi
Dew Point: 12°   Wind: 0mph
Humidity: 96%   Direction: NA
Pressure: 30.16"   Gusts: NA
Location:  33.41°N, 105.01°W
Report Text: KROW 231351Z 00000KT 1/16SM BR VV001 13/12 A3016 RMK AO2 SFC VIS 1 1/4 SLP173 T01280122
Loading
Personal Weather Stations






























Interactive Weather Map
Tropical Storm Tracking
New forecast layout! Learn more

10-Day Weather Forecast

Advertisements
Track Severe Weather on mobile